Time;durP1;ratioP1;P1;durP2;ratioP2;P2;SDS_P1;SDS_P2;PMS_P1;PMS_P2;Temp;Humidity;BMP_temperature;BMP_pressure;BME280_temperature;BME280_humidity;BME280_pressure;Samples;Min_cycle;Max_cycle;Signal;HPM_P1;HPM_P2
2022/06/12 00:01:01;;;;;;;13.18;3.70;;;;;;;-142.64;100.00;58178.75;5071076;28;20024;-64
2022/06/12 00:03:28;;;;;;;11.88;2.90;;;;;;;-142.64;100.00;58178.75;5071026;28;20031;-62
2022/06/12 00:05:56;;;;;;;9.32;2.22;;;;;;;-142.64;100.00;58178.75;5070850;28;20040;-64
2022/06/12 00:08:23;;;;;;;16.90;3.10;;;;;;;-142.64;100.00;58178.75;5072374;28;20028;-63
2022/06/12 00:10:50;;;;;;;11.43;3.58;;;;;;;-142.64;100.00;58178.75;5054067;28;20068;-63
2022/06/12 00:13:20;;;;;;;13.98;3.05;;;;;;;-142.64;100.00;58178.75;5074179;28;20494;-64
2022/06/12 00:15:46;;;;;;;11.50;3.03;;;;;;;-142.64;100.00;58178.75;5078685;28;20077;-64
2022/06/12 00:18:11;;;;;;;13.88;3.25;;;;;;;-142.64;100.00;58178.75;5078840;28;20032;-64
2022/06/12 00:20:37;;;;;;;12.27;2.75;;;;;;;-142.64;100.00;58178.75;5077446;28;20472;-62
2022/06/12 00:23:09;;;;;;;12.65;3.28;;;;;;;-142.64;100.00;58178.75;5077546;28;20093;-64
2022/06/12 00:25:35;;;;;;;11.98;3.15;;;;;;;-142.64;100.00;58178.75;5078867;28;20479;-64
2022/06/12 00:28:00;;;;;;;15.00;3.80;;;;;;;-142.64;100.00;58178.75;5078764;28;20047;-62
2022/06/12 00:30:26;;;;;;;11.45;3.13;;;;;;;-142.64;100.00;58178.75;5078991;28;20123;-64
2022/06/12 00:32:54;;;;;;;17.02;3.80;;;;;;;-142.64;100.00;58178.75;5078540;28;20043;-64
2022/06/12 00:35:23;;;;;;;12.93;3.70;;;;;;;-142.64;100.00;58178.75;5078415;28;20488;-62
2022/06/12 00:37:49;;;;;;;16.23;4.03;;;;;;;-142.64;100.00;58178.75;5077877;28;20126;-63
2022/06/12 00:40:14;;;;;;;12.88;4.03;;;;;;;-142.64;100.00;58178.75;5078283;28;20032;-64
2022/06/12 00:42:47;;;;;;;13.05;2.90;;;;;;;-142.64;100.00;58178.75;5078445;28;20464;-65
2022/06/12 00:45:34;;;;;;;14.00;3.40;;;;;;;-142.64;100.00;58178.75;5078200;28;20394;-63
2022/06/12 00:48:03;;;;;;;16.83;4.10;;;;;;;-142.64;100.00;58178.75;5078407;28;20491;-63
2022/06/12 00:50:30;;;;;;;14.85;3.97;;;;;;;-142.64;100.00;58178.75;5077962;28;20044;-63
2022/06/12 00:52:55;;;;;;;15.73;4.15;;;;;;;-142.64;100.00;58178.75;5077397;28;20084;-65
2022/06/12 00:55:43;;;;;;;16.15;4.05;;;;;;;-142.64;100.00;58178.75;5078401;28;20039;-62
2022/06/12 00:58:15;;;;;;;16.13;3.97;;;;;;;-142.64;100.00;58178.75;5077331;28;20074;-64
2022/06/12 01:00:41;;;;;;;13.30;3.50;;;;;;;-142.64;100.00;58178.75;5077275;28;20071;-64
2022/06/12 01:03:08;;;;;;;15.75;3.40;;;;;;;-142.64;100.00;58178.75;5078587;28;20436;-63
2022/06/12 01:08:17;;;;;;;9.25;3.45;;;;;;;-142.64;100.00;58178.75;5078285;28;20094;-63
2022/06/12 01:10:46;;;;;;;15.55;3.88;;;;;;;-142.64;100.00;58178.75;5078329;28;20048;-62
2022/06/12 01:13:22;;;;;;;17.42;3.85;;;;;;;-142.64;100.00;58178.75;5060170;28;20028;-64
2022/06/12 01:15:53;;;;;;;15.45;3.83;;;;;;;-142.64;100.00;58178.75;5077220;28;20028;-65
2022/06/12 01:18:24;;;;;;;10.23;3.67;;;;;;;-142.64;100.00;58178.75;5078092;28;20070;-63
2022/06/12 01:21:10;;;;;;;15.95;3.42;;;;;;;-142.64;100.00;58178.75;5076712;28;20039;-63
2022/06/12 01:24:06;;;;;;;15.00;3.72;;;;;;;-142.64;100.00;58178.75;5060426;28;20433;-64
2022/06/12 01:26:59;;;;;;;15.85;4.22;;;;;;;-142.64;100.00;58178.75;5073196;28;20078;-63
2022/06/12 01:29:37;;;;;;;13.88;4.60;;;;;;;-142.64;100.00;58178.75;5074651;28;20131;-63
2022/06/12 01:32:18;;;;;;;14.45;4.30;;;;;;;-142.64;100.00;58178.75;5074980;28;20494;-64
2022/06/12 01:35:05;;;;;;;15.93;4.10;;;;;;;-142.64;100.00;58178.75;5073686;28;20117;-63
2022/06/12 01:37:40;;;;;;;18.85;4.10;;;;;;;-142.64;100.00;58178.75;5074589;28;20036;-63
2022/06/12 01:40:32;;;;;;;15.57;4.15;;;;;;;-142.64;100.00;58178.75;5073280;28;20025;-64
2022/06/12 01:43:17;;;;;;;17.77;4.43;;;;;;;-142.64;100.00;58178.75;5074737;28;20055;-64
2022/06/12 01:46:06;;;;;;;17.02;4.15;;;;;;;-142.64;100.00;58178.75;5074729;28;20028;-63
2022/06/12 01:48:41;;;;;;;16.65;4.18;;;;;;;-142.64;100.00;58178.75;5073234;28;20028;-65
2022/06/12 01:51:09;;;;;;;15.93;5.15;;;;;;;-142.64;100.00;58178.75;5074530;28;20115;-63
2022/06/12 01:53:35;;;;;;;19.98;5.10;;;;;;;-142.64;100.00;58178.75;5073225;28;20067;-62
2022/06/12 01:56:10;;;;;;;17.25;4.57;;;;;;;-142.64;100.00;58178.75;5074411;28;20064;-63
2022/06/12 01:58:48;;;;;;;16.42;4.57;;;;;;;-142.64;100.00;58178.75;5074369;28;20383;-62
2022/06/12 02:01:24;;;;;;;19.00;4.28;;;;;;;-142.64;100.00;58178.75;5074491;28;20479;-63
2022/06/12 02:03:58;;;;;;;23.75;5.00;;;;;;;-142.64;100.00;58178.75;5072999;28;20032;-64
2022/06/12 02:06:33;;;;;;;12.98;4.35;;;;;;;-142.64;100.00;58178.75;5072976;28;20040;-65
2022/06/12 02:09:09;;;;;;;16.45;4.57;;;;;;;-142.64;100.00;58178.75;5072603;28;20249;-64
2022/06/12 02:14:31;;;;;;;15.35;6.13;;;;;;;-142.64;100.00;58178.75;5073354;28;20042;-65
2022/06/12 02:16:59;;;;;;;19.95;5.53;;;;;;;-142.64;100.00;58178.75;5073952;28;20028;-64
2022/06/12 02:19:29;;;;;;;20.33;4.90;;;;;;;-142.64;100.00;58178.75;5072562;28;20086;-63
2022/06/12 02:22:01;;;;;;;16.67;5.55;;;;;;;-142.64;100.00;58178.75;5074166;28;20078;-64
2022/06/12 02:24:34;;;;;;;18.15;5.20;;;;;;;-142.64;100.00;58178.75;5072655;28;20028;-64
2022/06/12 02:27:22;;;;;;;13.18;4.57;;;;;;;-142.64;100.00;58178.75;5072057;28;20077;-63
2022/06/12 02:30:16;;;;;;;16.13;4.50;;;;;;;-142.64;100.00;58178.75;5073516;28;20077;-65
2022/06/12 02:32:47;;;;;;;19.65;4.78;;;;;;;-142.64;100.00;58178.75;5072232;28;20068;-64
2022/06/12 02:35:26;;;;;;;20.20;5.30;;;;;;;-142.64;100.00;58178.75;5073499;28;20480;-63
2022/06/12 02:37:56;;;;;;;14.85;5.60;;;;;;;-142.64;100.00;58178.75;5072022;28;20059;-64
2022/06/12 02:40:29;;;;;;;19.35;5.30;;;;;;;-142.64;100.00;58178.75;5055731;28;20101;-63
2022/06/12 02:42:57;;;;;;;17.85;5.55;;;;;;;-142.64;100.00;58178.75;5072528;28;20056;-62
2022/06/12 02:45:38;;;;;;;23.25;5.28;;;;;;;-142.64;100.00;58178.75;5072262;28;20039;-64
2022/06/12 02:48:05;;;;;;;21.50;6.20;;;;;;;-142.64;100.00;58178.75;5072202;28;20039;-64
2022/06/12 02:50:36;;;;;;;18.35;4.95;;;;;;;-142.64;100.00;58178.75;5072038;28;20043;-63
2022/06/12 02:53:14;;;;;;;23.85;5.90;;;;;;;-142.64;100.00;58178.75;5072278;28;20040;-65
2022/06/12 02:56:02;;;;;;;24.20;5.65;;;;;;;-142.64;100.00;58178.75;5073504;28;20082;-64
2022/06/12 02:58:40;;;;;;;28.10;6.03;;;;;;;-142.64;100.00;58178.75;5071858;28;20033;-65
2022/06/12 03:01:09;;;;;;;20.42;4.53;;;;;;;-142.64;100.00;58178.75;5071829;28;20028;-64
2022/06/12 03:03:55;;;;;;;19.85;5.07;;;;;;;-142.64;100.00;58178.75;5073291;28;20037;-62
2022/06/12 03:06:26;;;;;;;24.33;6.05;;;;;;;-142.64;100.00;58178.75;5072004;28;20028;-63
2022/06/12 03:08:56;;;;;;;21.48;5.95;;;;;;;-142.64;100.00;58178.75;5071846;28;20032;-62
2022/06/12 03:11:24;;;;;;;21.13;5.80;;;;;;;-142.64;100.00;58178.75;5055338;28;20041;-63
2022/06/12 03:13:51;;;;;;;22.55;5.95;;;;;;;-142.64;100.00;58178.75;5073015;28;20049;-64
2022/06/12 03:16:19;;;;;;;19.65;5.28;;;;;;;-142.64;100.00;58178.75;5072869;28;20036;-64
2022/06/12 03:18:54;;;;;;;18.58;5.22;;;;;;;-142.64;100.00;58178.75;5073010;28;20040;-63
2022/06/12 03:21:41;;;;;;;17.10;5.57;;;;;;;-142.64;100.00;58178.75;5072794;28;20111;-63
2022/06/12 03:24:15;;;;;;;18.90;5.32;;;;;;;-142.64;100.00;58178.75;5072989;28;20107;-65
2022/06/12 03:27:11;;;;;;;18.38;5.68;;;;;;;-142.64;100.00;58178.75;5071484;28;20056;-64
2022/06/12 03:29:46;;;;;;;19.42;5.68;;;;;;;-142.64;100.00;58178.75;5072583;28;20041;-63
2022/06/12 03:32:33;;;;;;;18.40;5.85;;;;;;;-142.64;100.00;58178.75;5072577;28;20055;-63
2022/06/12 03:35:13;;;;;;;21.10;5.05;;;;;;;-142.64;100.00;58178.75;5054481;28;20032;-65
2022/06/12 03:37:47;;;;;;;19.45;5.43;;;;;;;-142.64;100.00;58178.75;5071382;28;20032;-64
2022/06/12 03:40:28;;;;;;;22.55;5.93;;;;;;;-142.64;100.00;58178.75;5072466;28;20028;-65
2022/06/12 03:42:57;;;;;;;21.63;5.93;;;;;;;-142.64;100.00;58178.75;5072421;28;20094;-65
2022/06/12 03:45:30;;;;;;;19.00;5.63;;;;;;;-142.64;100.00;58178.75;5054496;28;20036;-63
2022/06/12 03:48:07;;;;;;;22.73;5.70;;;;;;;-142.64;100.00;58178.75;5054040;28;20067;-64
2022/06/12 03:50:38;;;;;;;17.17;5.18;;;;;;;-142.64;100.00;58178.75;5072424;28;20485;-64
2022/06/12 03:53:08;;;;;;;;;;;;;;;-142.64;100.00;58178.75;5072631;28;20028;-64
2022/06/12 03:58:33;;;;;;;23.00;5.50;;;;;;;-142.64;100.00;58178.75;5070292;28;20524;-64
2022/06/12 04:01:00;;;;;;;17.85;5.00;;;;;;;-142.64;100.00;58178.75;5061455;28;20058;-64
2022/06/12 04:03:29;;;;;;;22.27;5.55;;;;;;;-142.64;100.00;58178.75;5060752;28;20554;-64
2022/06/12 04:06:00;;;;;;;20.05;5.00;;;;;;;-142.64;100.00;58178.75;5058753;28;20113;-63
2022/06/12 04:08:36;;;;;;;24.17;5.13;;;;;;;-142.64;100.00;58178.75;5067357;28;20032;-62
2022/06/12 04:11:02;;;;;;;17.98;5.32;;;;;;;-142.64;100.00;58178.75;5051051;28;20071;-64
2022/06/12 04:13:28;;;;;;;13.93;4.72;;;;;;;-142.64;100.00;58178.75;5051464;28;20476;-63
2022/06/12 04:15:56;;;;;;;13.35;4.80;;;;;;;-142.64;100.00;58178.75;5034043;28;20033;-63
2022/06/12 04:18:24;;;;;;;11.38;4.93;;;;;;;-142.64;100.00;58178.75;5050990;28;20068;-64
2022/06/12 04:21:00;;;;;;;21.92;5.40;;;;;;;-142.64;100.00;58178.75;5050346;28;20035;-63
2022/06/12 04:23:56;;;;;;;14.23;4.47;;;;;;;-142.64;100.00;58178.75;5050833;28;20111;-63
2022/06/12 04:26:27;;;;;;;15.38;5.03;;;;;;;-142.64;100.00;58178.75;5051916;28;20094;-64
2022/06/12 04:29:05;;;;;;;16.30;4.90;;;;;;;-142.64;100.00;58178.75;5050945;28;20033;-64
2022/06/12 04:31:32;;;;;;;18.70;4.05;;;;;;;-142.64;100.00;58178.75;5052177;28;20124;-64
2022/06/12 04:34:27;;;;;;;18.85;4.63;;;;;;;-142.64;100.00;58178.75;5051940;28;20063;-63
2022/06/12 04:36:57;;;;;;;13.18;4.20;;;;;;;-142.64;100.00;58178.75;5051833;28;20116;-64
2022/06/12 04:39:26;;;;;;;16.48;5.20;;;;;;;-142.64;100.00;58178.75;5051858;28;20496;-64
2022/06/12 04:41:52;;;;;;;14.07;4.55;;;;;;;-142.64;100.00;58178.75;5052042;28;20396;-65
2022/06/12 04:44:18;;;;;;;11.10;3.55;;;;;;;-142.64;100.00;58178.75;5034168;28;20043;-64
2022/06/12 04:46:45;;;;;;;16.65;4.70;;;;;;;-142.64;100.00;58178.75;5051924;28;20061;-65
2022/06/12 04:49:15;;;;;;;13.13;3.80;;;;;;;-142.64;100.00;58178.75;5050431;28;20029;-62
2022/06/12 04:51:40;;;;;;;15.68;4.38;;;;;;;-142.64;100.00;58178.75;5051864;28;20035;-63
2022/06/12 04:54:06;;;;;;;13.90;4.80;;;;;;;-142.64;100.00;58178.75;5051895;28;20041;-63
2022/06/12 04:56:34;;;;;;;11.85;3.58;;;;;;;-142.64;100.00;58178.75;5051799;28;20033;-63
2022/06/12 04:59:00;;;;;;;12.27;4.10;;;;;;;-142.64;100.00;58178.75;5051742;28;20029;-64
2022/06/12 05:01:25;;;;;;;12.60;3.42;;;;;;;-142.64;100.00;58178.75;5053306;28;20040;-63
2022/06/12 05:03:51;;;;;;;18.10;3.88;;;;;;;-142.64;100.00;58178.75;5055443;28;20033;-65
2022/06/12 05:06:17;;;;;;;13.68;3.60;;;;;;;-142.64;100.00;58178.75;5055682;28;20033;-63
2022/06/12 05:08:43;;;;;;;11.82;3.60;;;;;;;-142.64;100.00;58178.75;5055525;28;20112;-62
2022/06/12 05:11:09;;;;;;;11.70;3.10;;;;;;;-142.64;100.00;58178.75;5054647;28;20056;-65
2022/06/12 05:13:35;;;;;;;11.80;3.33;;;;;;;-142.64;100.00;58178.75;5054205;28;20045;-62
2022/06/12 05:16:00;;;;;;;9.63;2.78;;;;;;;-142.64;100.00;58178.75;5054116;28;20058;-62
2022/06/12 05:18:26;;;;;;;15.63;3.58;;;;;;;-142.64;100.00;58178.75;5055171;28;20087;-64
2022/06/12 05:20:51;;;;;;;11.50;3.17;;;;;;;-142.64;100.00;58178.75;5053974;28;20379;-65
2022/06/12 05:23:18;;;;;;;12.05;3.33;;;;;;;-142.64;100.00;58178.75;5054937;28;20041;-65
2022/06/12 05:25:43;;;;;;;8.88;2.70;;;;;;;-142.64;100.00;58178.75;5037246;28;20025;-63
2022/06/12 05:28:12;;;;;;;9.90;3.05;;;;;;;-142.64;100.00;58178.75;5037116;28;20402;-63
2022/06/12 05:30:38;;;;;;;7.93;2.72;;;;;;;-142.64;100.00;58178.75;5053682;28;20103;-65
2022/06/12 05:33:04;;;;;;;8.65;3.30;;;;;;;-142.64;100.00;58178.75;5054656;28;20120;-64
2022/06/12 05:35:30;;;;;;;6.95;2.50;;;;;;;-142.64;100.00;58178.75;5053527;28;20108;-63
2022/06/12 05:37:56;;;;;;;7.97;2.72;;;;;;;-142.64;100.00;58178.75;5054885;28;20081;-65
2022/06/12 05:40:25;;;;;;;9.80;2.75;;;;;;;-142.64;100.00;58178.75;5053553;28;20033;-63
2022/06/12 05:42:51;;;;;;;6.93;2.60;;;;;;;-142.64;100.00;58178.75;5053546;28;20081;-64
2022/06/12 05:45:19;;;;;;;9.23;2.75;;;;;;;-142.64;100.00;58178.75;5053254;28;20029;-64
2022/06/12 05:47:48;;;;;;;9.70;3.13;;;;;;;-142.64;100.00;58178.75;5054792;28;20037;-65
2022/06/12 05:50:14;;;;;;;7.53;2.72;;;;;;;-142.64;100.00;58178.75;5054222;28;20090;-65
2022/06/12 05:52:39;;;;;;;7.53;2.63;;;;;;;-142.64;100.00;58178.75;5054385;28;20082;-64
2022/06/12 05:55:05;;;;;;;9.57;2.40;;;;;;;-142.64;100.00;58178.75;5053322;28;20124;-63
2022/06/12 05:57:30;;;;;;;7.57;3.20;;;;;;;-142.64;100.00;58178.75;5054437;28;20044;-62
2022/06/12 05:59:58;;;;;;;9.20;2.67;;;;;;;-142.64;100.00;58178.75;5054034;28;20125;-62
2022/06/12 06:02:23;;;;;;;11.45;2.75;;;;;;;-142.64;100.00;58178.75;5054125;28;20107;-63
2022/06/12 06:04:48;;;;;;;7.40;2.85;;;;;;;-142.64;100.00;58178.75;5054287;28;20200;-63
2022/06/12 06:07:14;;;;;;;10.82;2.97;;;;;;;-142.64;100.00;58178.75;5054385;28;20047;-63
2022/06/12 06:09:39;;;;;;;10.80;3.22;;;;;;;-142.64;100.00;58178.75;5052740;28;20053;-63
2022/06/12 06:12:05;;;;;;;8.88;2.80;;;;;;;-142.64;100.00;58178.75;5052375;28;20040;-64
2022/06/12 06:14:31;;;;;;;9.27;2.80;;;;;;;-142.64;100.00;58178.75;5054008;28;20045;-64
2022/06/12 06:16:57;;;;;;;7.28;2.28;;;;;;;-142.64;100.00;58178.75;5054479;28;20033;-64
2022/06/12 06:19:23;;;;;;;8.80;2.35;;;;;;;-142.64;100.00;58178.75;5054053;28;20484;-64
2022/06/12 06:21:48;;;;;;;7.07;2.00;;;;;;;-142.64;100.00;58178.75;5052693;28;20112;-62
2022/06/12 06:24:14;;;;;;;7.50;2.50;;;;;;;-142.64;100.00;58178.75;5054020;28;20147;-63
2022/06/12 06:26:40;;;;;;;9.50;2.88;;;;;;;-142.64;100.00;58178.75;5053986;28;20075;-62
2022/06/12 06:29:05;;;;;;;5.30;2.30;;;;;;;-142.64;100.00;58178.75;5052354;28;20040;-62
2022/06/12 06:31:30;;;;;;;9.43;3.20;;;;;;;-142.64;100.00;58178.75;5052351;28;20117;-62
2022/06/12 06:33:56;;;;;;;11.90;3.20;;;;;;;-142.64;100.00;58178.75;5053697;28;20120;-62
2022/06/12 06:36:22;;;;;;;5.65;2.20;;;;;;;-142.64;100.00;58178.75;5053554;28;20438;-62
2022/06/12 06:38:50;;;;;;;6.70;2.10;;;;;;;-142.64;100.00;58178.75;5052538;28;20057;-62
2022/06/12 06:41:15;;;;;;;8.90;2.38;;;;;;;-142.64;100.00;58178.75;5052143;28;20077;-62
2022/06/12 06:46:25;;;;;;;7.97;2.45;;;;;;;-142.64;100.00;58178.75;5053479;28;20556;-63
2022/06/12 06:48:50;;;;;;;7.35;2.40;;;;;;;-142.64;100.00;58178.75;5053469;28;20041;-62
2022/06/12 06:51:16;;;;;;;8.68;2.53;;;;;;;-142.64;100.00;58178.75;5053244;28;20419;-63
2022/06/12 06:53:42;;;;;;;8.82;2.40;;;;;;;-142.64;100.00;58178.75;5053393;28;20040;-63
2022/06/12 06:56:07;;;;;;;8.05;2.97;;;;;;;-142.64;100.00;58178.75;5053224;28;20037;-62
2022/06/12 06:58:33;;;;;;;6.97;2.33;;;;;;;-142.64;100.00;58178.75;5052290;28;20036;-63
2022/06/12 07:00:59;;;;;;;9.27;2.65;;;;;;;-142.64;100.00;58178.75;5053422;28;20041;-62
2022/06/12 07:03:24;;;;;;;9.95;3.08;;;;;;;-142.64;100.00;58178.75;5051991;28;20391;-63
2022/06/12 07:05:51;;;;;;;8.35;2.70;;;;;;;-142.64;100.00;58178.75;5053289;28;20033;-63
2022/06/12 07:08:18;;;;;;;6.72;2.70;;;;;;;-142.64;100.00;58178.75;5053036;28;20033;-62
2022/06/12 07:10:45;;;;;;;5.45;2.67;;;;;;;-142.64;100.00;58178.75;5052927;28;20059;-62
2022/06/12 07:13:10;;;;;;;13.32;3.70;;;;;;;-142.64;100.00;58178.75;5052684;28;20461;-62
2022/06/12 07:15:36;;;;;;;9.27;3.47;;;;;;;-142.64;100.00;58178.75;5051932;28;20060;-61
2022/06/12 07:18:03;;;;;;;5.80;2.30;;;;;;;-142.64;100.00;58178.75;5051739;28;20091;-62
2022/06/12 07:20:32;;;;;;;9.40;2.70;;;;;;;-142.64;100.00;58178.75;5052890;28;20067;-63
2022/06/12 07:22:57;;;;;;;7.45;3.05;;;;;;;-142.64;100.00;58178.75;5050824;28;20025;-62
2022/06/12 07:25:24;;;;;;;7.03;2.72;;;;;;;-142.64;100.00;58178.75;5052581;28;20090;-62
2022/06/12 07:27:49;;;;;;;8.27;2.47;;;;;;;-142.64;100.00;58178.75;5051680;28;20119;-62
2022/06/12 07:30:20;;;;;;;5.47;2.25;;;;;;;-142.64;100.00;58178.75;5051444;28;20120;-61
2022/06/12 07:32:46;;;;;;;7.35;2.47;;;;;;;-142.64;100.00;58178.75;5051732;28;20111;-61
2022/06/12 07:35:11;;;;;;;6.72;2.72;;;;;;;-142.64;100.00;58178.75;5052567;28;20479;-62
2022/06/12 07:37:37;;;;;;;9.05;3.00;;;;;;;-142.64;100.00;58178.75;5051408;28;20033;-61
2022/06/12 07:40:08;;;;;;;6.80;2.58;;;;;;;-142.64;100.00;58178.75;5052271;28;20029;-61
2022/06/12 07:42:34;;;;;;;;;;;;;;;-142.64;100.00;58178.75;5051888;28;20036;-61
2022/06/12 07:44:59;;;;;;;7.03;2.67;;;;;;;-142.64;100.00;58178.75;5052723;28;19925;-62
2022/06/12 07:47:24;;;;;;;9.45;2.47;;;;;;;-142.64;100.00;58178.75;5051304;28;20037;-61
2022/06/12 07:49:50;;;;;;;10.73;3.00;;;;;;;-142.64;100.00;58178.75;5052335;28;20491;-62
2022/06/12 07:52:16;;;;;;;7.70;2.72;;;;;;;-142.64;100.00;58178.75;5052349;28;20400;-62
2022/06/12 07:54:42;;;;;;;4.45;2.35;;;;;;;-142.64;100.00;58178.75;5052502;28;20037;-61
2022/06/12 07:57:08;;;;;;;9.15;2.40;;;;;;;-142.64;100.00;58178.75;5051089;28;20438;-61
2022/06/12 07:59:33;;;;;;;7.55;2.38;;;;;;;-142.64;100.00;58178.75;5052050;28;20392;-62
2022/06/12 08:01:59;;;;;;;9.98;2.88;;;;;;;-142.64;100.00;58178.75;5051783;28;20044;-61
2022/06/12 08:04:24;;;;;;;6.05;2.80;;;;;;;-142.64;100.00;58178.75;5052146;28;20037;-61
2022/06/12 08:06:50;;;;;;;6.45;2.72;;;;;;;-142.64;100.00;58178.75;5050795;28;20043;-62
2022/06/12 08:09:16;;;;;;;6.93;2.60;;;;;;;-142.64;100.00;58178.75;5050496;28;20033;-60
2022/06/12 08:11:44;;;;;;;6.47;2.28;;;;;;;-142.64;100.00;58178.75;5050954;28;20041;-60
2022/06/12 08:14:09;;;;;;;7.50;2.50;;;;;;;-142.64;100.00;58178.75;5052212;28;20033;-62
2022/06/12 08:16:36;;;;;;;6.25;2.60;;;;;;;-142.64;100.00;58178.75;5051093;28;20124;-62
2022/06/12 08:19:01;;;;;;;7.25;2.63;;;;;;;-142.64;100.00;58178.75;5051849;28;20044;-61
2022/06/12 08:21:27;;;;;;;8.50;3.00;;;;;;;-142.64;100.00;58178.75;5051809;28;20031;-60
2022/06/12 08:23:56;;;;;;;7.57;3.10;;;;;;;-142.64;100.00;58178.75;5051686;28;20522;-61
2022/06/12 08:26:30;;;;;;;6.63;2.65;;;;;;;-142.64;100.00;58178.75;5051889;28;20029;-61
2022/06/12 08:28:59;;;;;;;7.07;2.40;;;;;;;-142.64;100.00;58178.75;5051831;28;20029;-61
2022/06/12 08:31:28;;;;;;;6.97;2.60;;;;;;;-142.64;100.00;58178.75;5051870;28;20036;-61
2022/06/12 08:33:59;;;;;;;8.38;2.70;;;;;;;-142.64;100.00;58178.75;5050896;28;20029;-62
2022/06/12 08:36:25;;;;;;;6.03;1.90;;;;;;;-142.64;100.00;58178.75;5054410;28;20377;-59
2022/06/12 08:38:50;;;;;;;9.52;2.80;;;;;;;-142.64;100.00;58178.75;5054276;28;20032;-60
2022/06/12 08:41:39;;;;;;;5.13;2.35;;;;;;;-142.64;100.00;58178.75;5053870;28;20392;-60
2022/06/12 08:44:14;;;;;;;5.60;2.45;;;;;;;-142.64;100.00;58178.75;5034824;28;20150;-60
2022/06/12 08:46:53;;;;;;;7.65;2.35;;;;;;;-142.64;100.00;58178.75;5056290;28;20021;-59
2022/06/12 08:49:30;;;;;;;7.07;2.80;;;;;;;-142.64;100.00;58178.75;5055200;28;20052;-60
2022/06/12 08:52:10;;;;;;;8.23;2.67;;;;;;;-142.64;100.00;58178.75;5057813;28;20025;-60
2022/06/12 08:54:44;;;;;;;6.77;2.90;;;;;;;-142.64;100.00;58178.75;5053682;28;20025;-61
2022/06/12 08:57:17;;;;;;;6.45;2.20;;;;;;;-142.64;100.00;58178.75;5053710;28;20283;-60
2022/06/12 08:59:51;;;;;;;6.35;2.10;;;;;;;-142.64;100.00;58178.75;5053815;28;20037;-59
2022/06/12 09:02:21;;;;;;;6.93;2.30;;;;;;;-142.64;100.00;58178.75;5054172;28;20029;-60
2022/06/12 09:04:47;;;;;;;;;;;;;;;-142.64;100.00;58178.75;5055995;28;20037;-58
2022/06/12 09:07:16;;;;;;;6.07;2.33;;;;;;;-142.64;100.00;58178.75;5055181;28;20368;-59
2022/06/12 09:09:45;;;;;;;6.20;2.15;;;;;;;-142.64;100.00;58178.75;5053804;28;20049;-59
2022/06/12 09:12:17;;;;;;;4.50;1.92;;;;;;;-142.64;100.00;58178.75;5055328;28;20036;-59
2022/06/12 09:15:01;;;;;;;3.85;2.05;;;;;;;-142.64;100.00;58178.75;5055079;28;20029;-58
2022/06/12 09:17:44;;;;;;;5.18;2.13;;;;;;;-142.64;100.00;58178.75;5054630;28;20542;-59
2022/06/12 09:20:17;;;;;;;4.38;2.35;;;;;;;-142.64;100.00;58178.75;5054973;28;20060;-56
2022/06/12 09:23:10;;;;;;;7.75;2.10;;;;;;;-142.64;100.00;58178.75;5055146;28;20036;-58
2022/06/12 09:26:10;;;;;;;4.10;1.92;;;;;;;-142.64;100.00;58178.75;5055142;28;20485;-58
2022/06/12 09:29:02;;;;;;;5.43;2.53;;;;;;;-142.64;100.00;58178.75;5046350;28;20033;-58
2022/06/12 09:31:36;;;;;;;6.72;2.28;;;;;;;-142.64;100.00;58178.75;5053734;28;20097;-59
2022/06/12 09:34:18;;;;;;;3.70;1.77;;;;;;;-142.64;100.00;58178.75;5053786;28;20032;-58
2022/06/12 09:36:54;;;;;;;4.60;1.90;;;;;;;-142.64;100.00;58178.75;5053435;28;20051;-57
2022/06/12 09:39:31;;;;;;;4.32;2.05;;;;;;;-142.64;100.00;58178.75;5054692;28;20499;-58
2022/06/12 09:42:25;;;;;;;4.65;1.80;;;;;;;-142.64;100.00;58178.75;5053591;28;20071;-59
2022/06/12 09:45:11;;;;;;;5.68;2.28;;;;;;;-142.64;100.00;58178.75;5053614;28;20033;-59
2022/06/12 09:47:48;;;;;;;6.28;2.25;;;;;;;-142.64;100.00;58178.75;5052741;28;20025;-57
2022/06/12 09:50:29;;;;;;;5.35;2.40;;;;;;;-142.64;100.00;58178.75;5054406;28;20029;-55
2022/06/12 09:52:54;;;;;;;;;;;;;;;-142.64;100.00;58178.75;5055082;28;20029;-59
2022/06/12 09:55:26;;;;;;;6.07;2.33;;;;;;;-142.64;100.00;58178.75;5054154;28;19919;-58
2022/06/12 09:58:15;;;;;;;8.65;2.42;;;;;;;-142.64;100.00;58178.75;5053417;28;20379;-59
2022/06/12 10:00:41;;;;;;;5.68;2.25;;;;;;;-142.64;100.00;58178.75;5054260;28;20073;-56
2022/06/12 10:03:12;;;;;;;6.32;1.90;;;;;;;-142.64;100.00;58178.75;5054237;28;20037;-57
2022/06/12 10:05:49;;;;;;;4.00;1.75;;;;;;;-142.64;100.00;58178.75;5052866;28;20380;-59
2022/06/12 10:08:27;;;;;;;6.47;1.88;;;;;;;-142.64;100.00;58178.75;5052886;28;20029;-58
2022/06/12 10:11:05;;;;;;;8.05;2.78;;;;;;;-142.64;100.00;58178.75;5052519;28;20061;-57
2022/06/12 10:13:36;;;;;;;6.25;3.45;;;;;;;-142.64;100.00;58178.75;5053879;28;20036;-59
2022/06/12 10:16:05;;;;;;;5.00;1.67;;;;;;;-142.64;100.00;58178.75;5053778;28;20103;-59
2022/06/12 10:18:43;;;;;;;5.25;2.13;;;;;;;-142.64;100.00;58178.75;5054293;28;20052;-59
2022/06/12 10:21:16;;;;;;;5.50;2.28;;;;;;;-142.64;100.00;58178.75;5053439;28;20430;-59
2022/06/12 10:23:41;;;;;;;5.35;2.10;;;;;;;-142.64;100.00;58178.75;5052424;28;20084;-56
2022/06/12 10:26:23;;;;;;;4.18;1.77;;;;;;;-142.64;100.00;58178.75;5053729;28;20509;-58
2022/06/12 10:29:04;;;;;;;7.25;2.33;;;;;;;-142.64;100.00;58178.75;5053660;28;20503;-58
2022/06/12 10:31:34;;;;;;;5.35;1.88;;;;;;;-142.64;100.00;58178.75;5053976;28;20029;-57
2022/06/12 10:34:32;;;;;;;5.00;1.83;;;;;;;-142.64;100.00;58178.75;5052249;28;20483;-59
2022/06/12 10:37:11;;;;;;;5.90;2.13;;;;;;;-142.64;100.00;58178.75;5041135;28;20738;-57
2022/06/12 10:39:36;;;;;;;3.83;2.03;;;;;;;-142.64;100.00;58178.75;5053330;28;20545;-57
2022/06/12 10:42:05;;;;;;;4.45;1.60;;;;;;;-142.64;100.00;58178.75;5053610;28;20025;-57
2022/06/12 10:44:39;;;;;;;3.90;1.77;;;;;;;-142.64;100.00;58178.75;5053458;28;20040;-57
2022/06/12 10:47:42;;;;;;;4.43;1.83;;;;;;;-142.64;100.00;58178.75;5053091;28;20127;-57
2022/06/12 10:50:13;;;;;;;6.25;2.22;;;;;;;-142.64;100.00;58178.75;5052933;28;20457;-57
2022/06/12 10:52:54;;;;;;;6.03;1.90;;;;;;;-142.64;100.00;58178.75;5053333;28;20025;-58
2022/06/12 10:55:28;;;;;;;5.68;2.25;;;;;;;-142.64;100.00;58178.75;5053178;28;20033;-57
2022/06/12 10:58:25;;;;;;;4.30;2.10;;;;;;;-142.64;100.00;58178.75;5051200;28;20143;-58
2022/06/12 11:00:52;;;;;;;6.22;2.20;;;;;;;-142.64;100.00;58178.75;5052184;28;20033;-56
2022/06/12 11:03:38;;;;;;;6.75;2.03;;;;;;;-142.64;100.00;58178.75;5053126;28;20075;-56
2022/06/12 11:06:04;;;;;;;4.72;1.58;;;;;;;-142.64;100.00;58178.75;5051566;28;20032;-57
2022/06/12 11:08:50;;;;;;;3.42;1.80;;;;;;;-142.64;100.00;58178.75;5052941;28;20031;-59
2022/06/12 11:11:30;;;;;;;6.40;2.45;;;;;;;-142.64;100.00;58178.75;5051416;28;20048;-57
2022/06/12 11:14:03;;;;;;;5.93;1.42;;;;;;;-142.64;100.00;58178.75;5051703;28;20047;-58
2022/06/12 11:16:54;;;;;;;7.03;2.13;;;;;;;-142.64;100.00;58178.75;5052750;28;20365;-58
2022/06/12 11:19:23;;;;;;;;;;;;;;;-142.64;100.00;58178.75;5053066;28;20032;-55
2022/06/12 11:22:10;;;;;;;5.28;1.95;;;;;;;-142.64;100.00;58178.75;5068327;28;19935;-58
2022/06/12 11:24:52;;;;;;;4.10;1.38;;;;;;;-142.64;100.00;58178.75;5052677;28;20032;-59
2022/06/12 11:27:23;;;;;;;3.95;1.45;;;;;;;-142.64;100.00;58178.75;5034782;28;20487;-56
2022/06/12 11:30:02;;;;;;;4.55;1.25;;;;;;;-142.64;100.00;58178.75;5051344;28;20122;-55
2022/06/12 11:32:40;;;;;;;3.97;1.90;;;;;;;-142.64;100.00;58178.75;5051354;28;20025;-56
2022/06/12 11:35:22;;;;;;;5.72;2.20;;;;;;;-142.64;100.00;58178.75;5052102;28;20025;-60
2022/06/12 11:37:54;;;;;;;3.95;1.50;;;;;;;-142.64;100.00;58178.75;5052418;28;20128;-58
2022/06/12 11:40:42;;;;;;;7.00;1.67;;;;;;;-142.64;100.00;58178.75;5051022;28;20035;-56